Time;durP1;ratioP1;P1;durP2;ratioP2;P2;SDS_P1;SDS_P2;PMS_P1;PMS_P2;Temp;Humidity;BMP_temperature;BMP_pressure;BME280_temperature;BME280_humidity;BME280_pressure;Samples;Min_cycle;Max_cycle;Signal;HPM_P1;HPM_P2
2023/01/01 00:00:18;;;;;;;;;;;;;;;;;;2115836;28;20047;-46
2023/01/01 00:01:19;;;;;;;36.78;24.88;;;;;;;;;;2115416;28;19923;-47
2023/01/01 00:02:20;;;;;;;35.88;26.02;;;;;;;;;;2115328;28;20058;-46
2023/01/01 00:03:21;;;;;;;39.40;25.10;;;;;;;;;;2115595;28;20071;-46
2023/01/01 00:04:22;;;;;;;38.93;25.03;;;;;;;;;;2115332;28;20057;-46
2023/01/01 00:05:23;;;;;;;40.88;26.77;;;;;;;;;;2115299;28;20047;-46
2023/01/01 00:06:24;;;;;;;40.65;24.35;;;;;;;;;;2115405;28;20044;-45
2023/01/01 00:07:26;;;;;;;40.95;27.30;;;;;;;;;;2115276;28;20092;-47
2023/01/01 00:08:27;;;;;;;36.92;25.13;;;;;;;;;;2115375;28;20051;-46
2023/01/01 00:10:47;;;;;;;36.00;24.63;;;;;;;;;;2115402;28;20043;-47
2023/01/01 00:11:48;;;;;;;35.60;23.63;;;;;;;;;;2115287;28;20040;-46
2023/01/01 00:12:49;;;;;;;35.47;24.63;;;;;;;;;;2115491;28;20059;-47
2023/01/01 00:13:51;;;;;;;34.33;21.67;;;;;;;;;;2115298;28;20044;-48
2023/01/01 00:14:52;;;;;;;29.73;19.98;;;;;;;;;;2115054;28;20523;-46
2023/01/01 00:15:53;;;;;;;31.73;22.40;;;;;;;;;;2115280;28;20047;-46
2023/01/01 00:16:54;;;;;;;32.78;22.35;;;;;;;;;;2115328;28;20039;-47
2023/01/01 00:17:56;;;;;;;29.23;20.00;;;;;;;;;;2115260;28;20051;-47
2023/01/01 00:18:57;;;;;;;;;;;;;;;;;;2115634;28;20495;-46
2023/01/01 00:19:58;;;;;;;29.90;20.58;;;;;;;;;;2115141;28;19970;-47
2023/01/01 00:21:03;;;;;;;31.08;21.08;;;;;;;;;;2115124;28;20044;-46
2023/01/01 00:22:04;;;;;;;28.00;19.75;;;;;;;;;;2115360;28;20039;-48
2023/01/01 00:23:25;;;;;;;28.85;20.25;;;;;;;;;;2115192;28;20048;-47
2023/01/01 00:24:26;;;;;;;30.48;18.70;;;;;;;;;;2115157;28;20044;-47
2023/01/01 00:25:27;;;;;;;29.42;19.55;;;;;;;;;;2115037;28;20457;-47
2023/01/01 00:26:28;;;;;;;29.77;19.83;;;;;;;;;;2115150;28;20055;-46
2023/01/01 00:27:36;;;;;;;27.95;19.20;;;;;;;;;;2115193;28;20051;-50
2023/01/01 00:28:37;;;;;;;28.38;19.50;;;;;;;;;;2115126;28;20400;-46
2023/01/01 00:29:39;;;;;;;26.92;18.75;;;;;;;;;;2115091;28;20391;-48
2023/01/01 00:30:40;;;;;;;26.92;18.60;;;;;;;;;;2115191;28;20070;-47
2023/01/01 00:31:41;;;;;;;29.52;19.50;;;;;;;;;;2115194;28;20052;-48
2023/01/01 00:32:43;;;;;;;26.97;18.37;;;;;;;;;;2115506;28;20519;-46
2023/01/01 00:33:56;;;;;;;26.80;18.15;;;;;;;;;;2115246;28;20047;-47
2023/01/01 00:34:57;;;;;;;27.52;18.92;;;;;;;;;;2115199;28;20036;-47
2023/01/01 00:36:04;;;;;;;25.48;18.38;;;;;;;;;;2115207;28;20134;-46
2023/01/01 00:37:05;;;;;;;29.73;18.95;;;;;;;;;;2115115;28;20044;-46
2023/01/01 00:38:06;;;;;;;28.88;19.58;;;;;;;;;;2115318;28;20040;-46
2023/01/01 00:39:07;;;;;;;29.10;18.87;;;;;;;;;;2115234;28;20040;-47
2023/01/01 00:40:09;;;;;;;26.15;18.77;;;;;;;;;;2115186;28;20039;-46
2023/01/01 00:41:10;;;;;;;25.05;18.23;;;;;;;;;;2115092;28;20078;-47
2023/01/01 00:42:11;;;;;;;28.63;17.70;;;;;;;;;;2115144;28;20056;-45
2023/01/01 00:43:13;;;;;;;31.33;18.05;;;;;;;;;;2115099;28;20051;-45
2023/01/01 00:44:13;;;;;;;27.90;18.35;;;;;;;;;;2115070;28;20056;-45
2023/01/01 00:45:16;;;;;;;27.43;18.90;;;;;;;;;;2114972;28;20078;-46
2023/01/01 00:46:22;;;;;;;27.52;19.15;;;;;;;;;;2115028;28;20044;-45
2023/01/01 00:47:23;;;;;;;24.40;17.70;;;;;;;;;;2114633;28;20052;-46
2023/01/01 00:48:24;;;;;;;23.90;17.35;;;;;;;;;;2115056;28;20093;-45
2023/01/01 00:49:25;;;;;;;27.75;18.35;;;;;;;;;;2114994;28;20051;-46
2023/01/01 00:50:26;;;;;;;25.57;18.10;;;;;;;;;;2114946;28;20082;-45
2023/01/01 00:51:27;;;;;;;23.52;17.20;;;;;;;;;;2114760;28;20051;-45
2023/01/01 00:52:37;;;;;;;24.63;16.75;;;;;;;;;;2114995;28;20131;-46
2023/01/01 00:53:38;;;;;;;25.00;17.25;;;;;;;;;;2115157;28;20044;-46
2023/01/01 00:54:39;;;;;;;23.47;17.07;;;;;;;;;;2114838;28;20048;-46
2023/01/01 00:55:40;;;;;;;25.85;16.88;;;;;;;;;;2115037;28;20263;-45
2023/01/01 00:56:41;;;;;;;25.80;17.75;;;;;;;;;;2114918;28;20055;-45
2023/01/01 00:57:42;;;;;;;24.33;17.23;;;;;;;;;;2115009;28;20047;-45
2023/01/01 00:58:44;;;;;;;26.90;16.70;;;;;;;;;;2115193;28;20055;-46
2023/01/01 01:00:01;;;;;;;25.15;17.38;;;;;;;;;;2115072;28;20040;-47
2023/01/01 01:01:03;;;;;;;23.30;16.50;;;;;;;;;;2115202;28;20445;-46
2023/01/01 01:02:04;;;;;;;25.58;17.33;;;;;;;;;;2114961;28;20556;-45
2023/01/01 01:03:06;;;;;;;27.17;17.90;;;;;;;;;;2114884;28;20043;-46
2023/01/01 01:04:08;;;;;;;25.17;17.02;;;;;;;;;;2115107;28;20043;-46
2023/01/01 01:05:08;;;;;;;;;;;;;;;;;;2115435;28;20447;-45
2023/01/01 01:06:11;;;;;;;25.30;17.25;;;;;;;;;;2114852;28;19935;-45
2023/01/01 01:07:12;;;;;;;29.02;20.00;;;;;;;;;;2115094;28;20043;-45
2023/01/01 01:08:13;;;;;;;28.37;20.00;;;;;;;;;;2114848;28;20396;-45
2023/01/01 01:09:14;;;;;;;30.40;20.90;;;;;;;;;;2115093;28;20063;-46
2023/01/01 01:10:15;;;;;;;28.60;20.70;;;;;;;;;;2114859;28;20142;-45
2023/01/01 01:11:17;;;;;;;32.28;21.27;;;;;;;;;;2115047;28;20047;-45
2023/01/01 01:12:18;;;;;;;28.70;20.42;;;;;;;;;;2114935;28;20047;-45
2023/01/01 01:13:19;;;;;;;33.25;21.40;;;;;;;;;;2114888;28;20552;-45
2023/01/01 01:14:20;;;;;;;34.72;21.92;;;;;;;;;;2114716;28;20051;-45
2023/01/01 01:15:21;;;;;;;30.35;20.00;;;;;;;;;;2114911;28;20052;-45
2023/01/01 01:16:24;;;;;;;32.17;21.20;;;;;;;;;;2114754;28;20039;-46
2023/01/01 01:17:25;;;;;;;30.92;20.58;;;;;;;;;;2114788;28;20074;-47
2023/01/01 01:18:26;;;;;;;30.33;20.07;;;;;;;;;;2115011;28;20055;-46
2023/01/01 01:19:27;;;;;;;28.13;20.35;;;;;;;;;;2114686;28;20047;-45
2023/01/01 01:20:28;;;;;;;26.48;17.92;;;;;;;;;;2114905;28;20047;-46
2023/01/01 01:21:31;;;;;;;25.03;18.50;;;;;;;;;;2114901;28;20070;-46
2023/01/01 01:22:33;;;;;;;28.17;18.35;;;;;;;;;;2114811;28;20047;-47
2023/01/01 01:23:35;;;;;;;26.90;18.83;;;;;;;;;;2114894;28;20052;-45
2023/01/01 01:24:36;;;;;;;27.10;18.45;;;;;;;;;;2114610;28;20082;-45
2023/01/01 01:25:37;;;;;;;26.42;17.95;;;;;;;;;;2114791;28;20480;-45
2023/01/01 01:26:38;;;;;;;27.00;18.50;;;;;;;;;;2114937;28;20089;-45
2023/01/01 01:27:39;;;;;;;26.67;17.52;;;;;;;;;;2114749;28;20063;-46
2023/01/01 01:28:40;;;;;;;25.08;17.05;;;;;;;;;;2114678;28;20048;-46
2023/01/01 01:29:49;;;;;;;23.48;15.77;;;;;;;;;;2114757;28;20176;-45
2023/01/01 01:30:50;;;;;;;23.30;16.40;;;;;;;;;;2114699;28;20044;-45
2023/01/01 01:31:52;;;;;;;23.95;16.35;;;;;;;;;;2114858;28;20039;-45
2023/01/01 01:32:53;;;;;;;25.45;16.80;;;;;;;;;;2114781;28;20039;-45
2023/01/01 01:33:54;;;;;;;21.27;15.00;;;;;;;;;;2114926;28;20124;-45
2023/01/01 01:34:55;;;;;;;24.00;16.52;;;;;;;;;;2114622;28;20039;-49
2023/01/01 01:35:56;;;;;;;24.17;16.58;;;;;;;;;;2114658;28;20441;-46
2023/01/01 01:36:57;;;;;;;24.13;15.63;;;;;;;;;;2114818;28;20051;-44
2023/01/01 01:37:58;;;;;;;22.05;15.43;;;;;;;;;;2114851;28;20044;-45
2023/01/01 01:38:59;;;;;;;22.65;16.00;;;;;;;;;;2114767;28;20472;-45
2023/01/01 01:40:00;;;;;;;24.02;15.50;;;;;;;;;;2114916;28;20036;-45
2023/01/01 01:41:02;;;;;;;23.05;15.75;;;;;;;;;;2114832;28;20077;-45
2023/01/01 01:42:03;;;;;;;23.52;15.30;;;;;;;;;;2114644;28;20048;-45
2023/01/01 01:43:04;;;;;;;22.17;15.50;;;;;;;;;;2114593;28;20404;-45
2023/01/01 01:44:26;;;;;;;20.15;15.52;;;;;;;;;;2114667;28;20043;-46
2023/01/01 01:45:27;;;;;;;21.95;15.52;;;;;;;;;;2115054;28;20048;-45
2023/01/01 01:46:36;;;;;;;25.45;15.48;;;;;;;;;;2114578;28;20052;-44
2023/01/01 01:47:41;;;;;;;22.83;15.60;;;;;;;;;;2114577;28;20047;-47
2023/01/01 01:48:44;;;;;;;21.63;15.32;;;;;;;;;;2114827;28;20110;-46
2023/01/01 01:49:45;;;;;;;22.70;15.95;;;;;;;;;;2114570;28;20043;-44
2023/01/01 01:50:47;;;;;;;24.10;15.68;;;;;;;;;;2114549;28;20488;-45
2023/01/01 01:51:48;;;;;;;23.10;15.98;;;;;;;;;;2115055;28;20048;-46
2023/01/01 01:52:57;;;;;;;21.90;15.83;;;;;;;;;;2114533;28;20586;-44
2023/01/01 01:54:00;;;;;;;23.02;15.90;;;;;;;;;;2114762;28;20276;-46
2023/01/01 01:55:02;;;;;;;23.08;15.85;;;;;;;;;;2114811;28;20055;-44
2023/01/01 01:56:06;;;;;;;24.00;15.85;;;;;;;;;;2114556;28;20047;-45
2023/01/01 01:57:08;;;;;;;23.10;15.70;;;;;;;;;;2114721;28;20100;-44
2023/01/01 01:58:09;;;;;;;;;;;;;;;;;;2115025;28;20050;-44
2023/01/01 01:59:10;;;;;;;20.42;14.57;;;;;;;;;;2113799;28;19958;-45
2023/01/01 02:00:12;;;;;;;23.65;15.88;;;;;;;;;;2114497;28;20515;-44
2023/01/01 02:01:13;;;;;;;;;;;;;;;;;;2115042;28;20048;-44
2023/01/01 02:02:17;;;;;;;23.52;15.52;;;;;;;;;;2114506;28;19919;-45
2023/01/01 02:03:20;;;;;;;19.45;13.75;;;;;;;;;;2114689;28;20099;-44
2023/01/01 02:04:21;;;;;;;21.13;14.75;;;;;;;;;;2114487;28;20075;-44
2023/01/01 02:05:23;;;;;;;20.73;14.60;;;;;;;;;;2114705;28;20134;-45
2023/01/01 02:06:24;;;;;;;18.17;13.38;;;;;;;;;;2114477;28;20039;-45
2023/01/01 02:07:25;;;;;;;21.23;14.27;;;;;;;;;;2114697;28;20054;-44
2023/01/01 02:08:27;;;;;;;20.80;14.52;;;;;;;;;;2114556;28;20048;-43
2023/01/01 02:09:28;;;;;;;20.63;14.60;;;;;;;;;;2114663;28;20043;-45
2023/01/01 02:10:29;;;;;;;22.80;14.70;;;;;;;;;;2114649;28;20052;-44
2023/01/01 02:11:30;;;;;;;22.85;13.80;;;;;;;;;;2114702;28;20047;-45
2023/01/01 02:12:31;;;;;;;20.80;14.30;;;;;;;;;;2114766;28;20058;-45
2023/01/01 02:13:32;;;;;;;18.77;14.23;;;;;;;;;;2114474;28;20044;-44
2023/01/01 02:14:33;;;;;;;19.80;14.50;;;;;;;;;;2114515;28;20743;-45
2023/01/01 02:15:37;;;;;;;21.63;14.35;;;;;;;;;;2114494;28;20050;-45
2023/01/01 02:16:41;;;;;;;19.77;14.75;;;;;;;;;;2114749;28;20051;-44
2023/01/01 02:17:46;;;;;;;22.08;15.05;;;;;;;;;;2114403;28;20403;-45
2023/01/01 02:18:51;;;;;;;21.23;14.57;;;;;;;;;;2114582;28;20040;-44
2023/01/01 02:19:57;;;;;;;20.60;14.45;;;;;;;;;;2114345;28;20043;-44
2023/01/01 02:21:01;;;;;;;20.80;13.82;;;;;;;;;;2114449;28;20396;-45
2023/01/01 02:22:06;;;;;;;21.90;14.50;;;;;;;;;;2114667;28;20061;-45
2023/01/01 02:23:14;;;;;;;19.50;14.05;;;;;;;;;;2114749;28;20040;-45
2023/01/01 02:24:19;;;;;;;22.42;14.60;;;;;;;;;;2114425;28;20047;-45
2023/01/01 02:25:23;;;;;;;18.98;14.15;;;;;;;;;;2114446;28;20051;-44
2023/01/01 02:26:39;;;;;;;21.35;14.18;;;;;;;;;;2114339;28;20069;-45
2023/01/01 02:27:47;;;;;;;19.60;14.52;;;;;;;;;;2111640;28;20347;-46
2023/01/01 02:28:52;;;;;;;22.27;14.40;;;;;;;;;;2114393;28;20059;-45
2023/01/01 02:29:55;;;;;;;19.10;14.10;;;;;;;;;;2114377;28;20054;-44
2023/01/01 02:30:57;;;;;;;17.45;13.98;;;;;;;;;;2114320;28;20373;-44
2023/01/01 02:32:00;;;;;;;18.90;13.73;;;;;;;;;;2114406;28;20063;-44
2023/01/01 02:33:02;;;;;;;21.42;13.50;;;;;;;;;;2114304;28;20054;-45
2023/01/01 02:34:06;;;;;;;19.45;12.98;;;;;;;;;;2114323;28;20122;-45
2023/01/01 02:36:28;;;;;;;16.90;12.73;;;;;;;;;;2100957;28;20507;-44
2023/01/01 02:37:29;;;;;;;20.55;13.68;;;;;;;;;;2114716;28;20055;-47
2023/01/01 02:38:32;;;;;;;20.25;14.48;;;;;;;;;;2114413;28;20048;-45
2023/01/01 02:39:34;;;;;;;19.75;14.65;;;;;;;;;;2114590;28;20105;-46
2023/01/01 02:40:39;;;;;;;17.20;12.73;;;;;;;;;;2114285;28;20050;-45
2023/01/01 02:41:42;;;;;;;22.13;14.15;;;;;;;;;;2114429;28;20062;-45
2023/01/01 02:42:44;;;;;;;19.13;13.70;;;;;;;;;;2114272;28;20055;-44
2023/01/01 02:43:45;;;;;;;18.98;13.57;;;;;;;;;;2114200;28;20048;-44
2023/01/01 02:44:49;;;;;;;16.95;11.50;;;;;;;;;;2114490;28;20067;-44
2023/01/01 02:45:50;;;;;;;19.95;13.25;;;;;;;;;;2114270;28;20407;-46
2023/01/01 02:46:52;;;;;;;21.83;14.03;;;;;;;;;;2114372;28;20051;-44
2023/01/01 02:47:52;;;;;;;18.85;13.70;;;;;;;;;;2114353;28;20047;-45
2023/01/01 02:48:54;;;;;;;19.77;13.53;;;;;;;;;;2114205;28;20047;-45
2023/01/01 02:49:57;;;;;;;19.45;13.20;;;;;;;;;;2114178;28;20044;-44
2023/01/01 02:50:59;;;;;;;19.65;13.10;;;;;;;;;;2114184;28;20048;-44
2023/01/01 02:52:03;;;;;;;18.80;13.07;;;;;;;;;;2114312;28;20108;-44
2023/01/01 02:53:10;;;;;;;19.23;13.23;;;;;;;;;;2114134;28;20055;-44
2023/01/01 02:54:15;;;;;;;20.15;12.93;;;;;;;;;;2114077;28;20074;-44
2023/01/01 02:55:23;;;;;;;18.90;13.23;;;;;;;;;;2114378;28;20051;-44
2023/01/01 02:56:32;;;;;;;19.98;12.50;;;;;;;;;;2114049;28;20093;-46
2023/01/01 02:57:35;;;;;;;17.40;12.43;;;;;;;;;;2114431;28;20096;-45
2023/01/01 03:01:33;;;;;;;19.10;11.80;;;;;;;;;;2096414;28;20114;-44
2023/01/01 03:02:39;;;;;;;16.40;12.48;;;;;;;;;;2108131;28;20044;-44
2023/01/01 03:03:50;;;;;;;18.98;12.63;;;;;;;;;;2114223;28;20047;-44
2023/01/01 03:04:56;;;;;;;17.55;12.75;;;;;;;;;;2114341;28;20492;-44
2023/01/01 03:07:24;;;;;;;19.98;13.13;;;;;;;;;;2114389;28;20047;-44
2023/01/01 03:08:28;;;;;;;17.10;11.82;;;;;;;;;;2114342;28;20089;-44
2023/01/01 03:09:37;;;;;;;16.70;12.48;;;;;;;;;;2114118;28;20411;-44
2023/01/01 03:10:41;;;;;;;18.65;12.30;;;;;;;;;;2114086;28;20047;-45
2023/01/01 03:11:46;;;;;;;17.02;12.32;;;;;;;;;;2114141;28;20051;-44
2023/01/01 03:12:52;;;;;;;18.75;12.88;;;;;;;;;;2114075;28;20054;-44
2023/01/01 03:13:58;;;;;;;20.27;13.20;;;;;;;;;;2114146;28;20036;-44
2023/01/01 03:15:01;;;;;;;17.42;12.48;;;;;;;;;;2114084;28;20400;-44
2023/01/01 03:16:05;;;;;;;17.42;11.90;;;;;;;;;;2113954;28;20404;-45
2023/01/01 03:17:10;;;;;;;22.33;12.40;;;;;;;;;;2114179;28;20044;-46
2023/01/01 03:18:14;;;;;;;19.27;13.07;;;;;;;;;;2114146;28;20051;-45
2023/01/01 03:19:17;;;;;;;14.98;11.32;;;;;;;;;;2114142;28;20047;-45
2023/01/01 03:20:20;;;;;;;19.75;12.32;;;;;;;;;;2114033;28;20059;-44
2023/01/01 03:21:21;;;;;;;17.23;12.40;;;;;;;;;;2114042;28;20499;-45
2023/01/01 03:22:26;;;;;;;17.27;11.60;;;;;;;;;;2114168;28;20071;-44
2023/01/01 03:23:30;;;;;;;16.17;11.75;;;;;;;;;;2114315;28;20051;-45
2023/01/01 03:24:33;;;;;;;16.67;12.30;;;;;;;;;;2113810;28;20050;-44
2023/01/01 03:25:36;;;;;;;18.17;12.25;;;;;;;;;;2114072;28;20051;-44
2023/01/01 03:26:38;;;;;;;15.27;11.07;;;;;;;;;;2114042;28;20051;-44
2023/01/01 03:27:40;;;;;;;16.35;12.73;;;;;;;;;;2114121;28;20044;-44
2023/01/01 03:28:45;;;;;;;16.42;11.48;;;;;;;;;;2114009;28;20404;-45
2023/01/01 03:29:47;;;;;;;20.35;12.65;;;;;;;;;;2113909;28;20056;-44
2023/01/01 03:30:49;;;;;;;15.85;11.90;;;;;;;;;;2114084;28;20404;-44
2023/01/01 03:31:52;;;;;;;17.80;11.73;;;;;;;;;;2114094;28;20062;-45
2023/01/01 03:33:00;;;;;;;16.95;12.25;;;;;;;;;;2114009;28;20036;-46
2023/01/01 03:34:04;;;;;;;16.88;12.30;;;;;;;;;;2114142;28;20048;-44
2023/01/01 03:35:05;;;;;;;17.60;11.85;;;;;;;;;;2113903;28;20488;-46
2023/01/01 03:36:07;;;;;;;16.55;11.88;;;;;;;;;;2113964;28;20035;-45
2023/01/01 03:37:11;;;;;;;17.45;12.32;;;;;;;;;;2114251;28;20040;-45
2023/01/01 03:38:14;;;;;;;16.13;11.70;;;;;;;;;;2113987;28;20048;-46
2023/01/01 03:39:17;;;;;;;16.85;11.55;;;;;;;;;;2113824;28;20404;-45
2023/01/01 03:40:20;;;;;;;16.85;11.20;;;;;;;;;;2113811;28;20055;-46
2023/01/01 03:41:25;;;;;;;18.40;11.88;;;;;;;;;;2114150;28;20048;-44
2023/01/01 03:42:28;;;;;;;15.88;11.55;;;;;;;;;;2113896;28;20101;-44
2023/01/01 03:43:34;;;;;;;17.10;11.93;;;;;;;;;;2113949;28;20074;-44
2023/01/01 03:44:40;;;;;;;15.48;11.38;;;;;;;;;;2114010;28;20048;-45
2023/01/01 03:45:42;;;;;;;16.73;11.45;;;;;;;;;;2113987;28;20051;-44
2023/01/01 03:46:43;;;;;;;;;;;;;;;;;;2114537;28;20044;-44
2023/01/01 03:47:45;;;;;;;15.35;11.13;;;;;;;;;;2113929;28;19968;-45
2023/01/01 03:48:59;;;;;;;15.70;10.85;;;;;;;;;;2114479;28;20048;-45
2023/01/01 03:50:05;;;;;;;17.17;11.60;;;;;;;;;;2113842;28;20403;-46
2023/01/01 03:51:10;;;;;;;14.50;11.48;;;;;;;;;;2113905;28;20051;-45
2023/01/01 03:52:29;;;;;;;14.90;10.27;;;;;;;;;;2113928;28;20581;-45
2023/01/01 03:53:35;;;;;;;19.20;11.82;;;;;;;;;;2114109;28;20496;-44
2023/01/01 03:54:38;;;;;;;18.63;11.20;;;;;;;;;;2113765;28;20055;-47
2023/01/01 03:55:42;;;;;;;17.17;11.00;;;;;;;;;;2114057;28;20048;-45
2023/01/01 03:56:45;;;;;;;15.90;10.27;;;;;;;;;;2113868;28;20052;-44
2023/01/01 03:57:49;;;;;;;15.23;10.48;;;;;;;;;;2113815;28;20048;-45
2023/01/01 03:58:53;;;;;;;15.27;10.98;;;;;;;;;;2113775;28;20157;-44
2023/01/01 04:00:00;;;;;;;13.77;10.45;;;;;;;;;;2113855;28;20507;-45
2023/01/01 04:01:03;;;;;;;14.40;10.57;;;;;;;;;;2113724;28;20039;-45
2023/01/01 04:02:07;;;;;;;16.15;11.07;;;;;;;;;;2113891;28;20559;-48
2023/01/01 04:03:13;;;;;;;16.10;10.90;;;;;;;;;;2113857;28;20044;-45
2023/01/01 04:04:14;;;;;;;16.63;11.18;;;;;;;;;;2113780;28;20051;-45
2023/01/01 04:05:17;;;;;;;14.48;10.38;;;;;;;;;;2113950;28;20044;-45
2023/01/01 04:06:18;;;;;;;17.92;11.25;;;;;;;;;;2113798;28;20400;-46
2023/01/01 04:07:38;;;;;;;17.27;11.37;;;;;;;;;;2113935;28;20488;-44
2023/01/01 04:08:39;;;;;;;14.77;10.70;;;;;;;;;;2113920;28;20356;-44
2023/01/01 04:09:42;;;;;;;16.20;10.67;;;;;;;;;;2113862;28;20108;-45
2023/01/01 04:10:45;;;;;;;14.45;10.50;;;;;;;;;;2113743;28;20070;-47
2023/01/01 04:12:03;;;;;;;16.10;10.07;;;;;;;;;;2113908;28;20052;-44
2023/01/01 04:13:05;;;;;;;16.90;11.02;;;;;;;;;;2114202;28;20043;-45
2023/01/01 04:14:05;;;;;;;;;;;;;;;;;;2114341;28;20050;-46
2023/01/01 04:15:07;;;;;;;12.40;9.90;;;;;;;;;;2113833;28;19947;-46
2023/01/01 04:16:08;;;;;;;13.80;9.77;;;;;;;;;;2113675;28;20527;-45
2023/01/01 04:17:10;;;;;;;13.40;9.60;;;;;;;;;;2113976;28;20036;-45
2023/01/01 04:18:11;;;;;;;13.95;9.82;;;;;;;;;;2113726;28;20068;-45
2023/01/01 04:19:12;;;;;;;15.40;9.57;;;;;;;;;;2113926;28;20385;-45
2023/01/01 04:20:13;;;;;;;13.07;9.43;;;;;;;;;;2113757;28;20483;-45
2023/01/01 04:21:15;;;;;;;14.32;9.88;;;;;;;;;;2114089;28;20051;-46
2023/01/01 04:22:16;;;;;;;15.05;10.00;;;;;;;;;;2114515;28;20092;-45
2023/01/01 04:23:18;;;;;;;13.48;9.05;;;;;;;;;;2115562;28;20047;-46
2023/01/01 04:24:19;;;;;;;15.50;9.85;;;;;;;;;;2115152;28;20396;-47
2023/01/01 04:25:20;;;;;;;13.65;9.15;;;;;;;;;;2115340;28;20385;-45
2023/01/01 04:26:21;;;;;;;14.15;9.15;;;;;;;;;;2115154;28;20047;-46
2023/01/01 04:27:22;;;;;;;13.37;9.20;;;;;;;;;;2115302;28;20047;-45
2023/01/01 04:28:23;;;;;;;12.30;9.18;;;;;;;;;;2115057;28;20476;-46
2023/01/01 04:29:24;;;;;;;13.07;8.75;;;;;;;;;;2115224;28;20047;-45
2023/01/01 04:30:25;;;;;;;11.88;8.32;;;;;;;;;;2115153;28;20048;-45
2023/01/01 04:31:26;;;;;;;17.23;9.63;;;;;;;;;;2115261;28;20047;-45
2023/01/01 04:32:28;;;;;;;12.77;9.48;;;;;;;;;;2115244;28;20051;-46
2023/01/01 04:33:31;;;;;;;11.73;8.93;;;;;;;;;;2115275;28;20039;-45
2023/01/01 04:34:32;;;;;;;14.13;8.77;;;;;;;;;;2114939;28;20062;-46
2023/01/01 04:35:33;;;;;;;13.73;9.47;;;;;;;;;;2115233;28;20062;-45
2023/01/01 04:36:34;;;;;;;13.38;9.13;;;;;;;;;;2115042;28;20040;-45
2023/01/01 04:37:36;;;;;;;13.27;8.75;;;;;;;;;;2115025;28;20040;-43
2023/01/01 04:38:37;;;;;;;12.52;8.93;;;;;;;;;;2115117;28;20134;-44
2023/01/01 04:39:38;;;;;;;11.15;8.77;;;;;;;;;;2115106;28;20054;-45
2023/01/01 04:40:39;;;;;;;13.85;9.13;;;;;;;;;;2115180;28;20052;-45
2023/01/01 04:41:40;;;;;;;12.13;8.57;;;;;;;;;;2115169;28;20077;-48
2023/01/01 04:42:41;;;;;;;10.80;8.27;;;;;;;;;;2115145;28;20069;-47
2023/01/01 04:43:45;;;;;;;12.23;8.40;;;;;;;;;;2115103;28;20051;-46
2023/01/01 04:44:46;;;;;;;12.40;8.75;;;;;;;;;;2114942;28;20499;-46
2023/01/01 04:45:54;;;;;;;12.13;8.00;;;;;;;;;;2115126;28;20051;-44
2023/01/01 04:46:55;;;;;;;12.07;8.35;;;;;;;;;;2115115;28;20039;-44
2023/01/01 04:48:02;;;;;;;12.75;8.52;;;;;;;;;;2115347;28;20043;-45
2023/01/01 04:49:04;;;;;;;13.30;8.40;;;;;;;;;;2115024;28;20377;-45
2023/01/01 04:50:05;;;;;;;;;;;;;;;;;;2115561;28;20051;-45
2023/01/01 04:51:06;;;;;;;11.80;8.02;;;;;;;;;;2114946;28;19970;-46
2023/01/01 04:52:07;;;;;;;13.32;8.38;;;;;;;;;;2115067;28;20051;-45
2023/01/01 04:53:08;;;;;;;10.90;7.70;;;;;;;;;;2115094;28;20035;-47
2023/01/01 04:54:09;;;;;;;12.50;8.25;;;;;;;;;;2115233;28;20105;-45
2023/01/01 04:55:10;;;;;;;14.43;8.30;;;;;;;;;;2114955;28;20040;-45
2023/01/01 04:56:12;;;;;;;12.52;8.60;;;;;;;;;;2114950;28;20055;-47
2023/01/01 04:57:13;;;;;;;11.70;8.23;;;;;;;;;;2115238;28;20180;-45
2023/01/01 04:58:14;;;;;;;13.23;7.97;;;;;;;;;;2115036;28;20434;-45
2023/01/01 04:59:15;;;;;;;13.93;8.75;;;;;;;;;;2115128;28;20104;-45
2023/01/01 05:00:17;;;;;;;12.10;8.50;;;;;;;;;;2115181;28;20108;-45
2023/01/01 05:01:19;;;;;;;11.82;7.68;;;;;;;;;;2115023;28;20051;-46
2023/01/01 05:02:21;;;;;;;12.45;8.25;;;;;;;;;;2114917;28;20044;-46
2023/01/01 05:03:22;;;;;;;13.30;8.20;;;;;;;;;;2115052;28;20071;-47
2023/01/01 05:04:24;;;;;;;13.23;8.43;;;;;;;;;;2114740;28;20180;-45
2023/01/01 05:05:24;;;;;;;11.75;8.38;;;;;;;;;;2114942;28;20058;-45
2023/01/01 05:06:26;;;;;;;13.80;8.38;;;;;;;;;;2115011;28;20047;-46
2023/01/01 05:07:27;;;;;;;10.30;7.07;;;;;;;;;;2115022;28;20089;-45
2023/01/01 05:08:28;;;;;;;11.43;8.30;;;;;;;;;;2114975;28;20090;-45
2023/01/01 05:09:29;;;;;;;10.25;7.85;;;;;;;;;;2114983;28;20051;-46
2023/01/01 05:10:31;;;;;;;11.18;7.43;;;;;;;;;;2114953;28;20097;-47
2023/01/01 05:11:32;;;;;;;11.90;8.20;;;;;;;;;;2114884;28;20484;-45
2023/01/01 05:12:33;;;;;;;13.20;8.07;;;;;;;;;;2114991;28;20055;-46
2023/01/01 05:13:35;;;;;;;13.07;8.68;;;;;;;;;;2114827;28;20069;-48
2023/01/01 05:14:36;;;;;;;11.02;7.68;;;;;;;;;;2114809;28;20044;-45
2023/01/01 05:15:37;;;;;;;10.88;7.45;;;;;;;;;;2114994;28;20281;-45
2023/01/01 05:16:39;;;;;;;9.55;7.30;;;;;;;;;;2114784;28;20054;-45
2023/01/01 05:17:39;;;;;;;10.15;7.45;;;;;;;;;;2114901;28;20058;-46
2023/01/01 05:18:41;;;;;;;11.33;8.20;;;;;;;;;;2114836;28;20138;-47
2023/01/01 05:19:43;;;;;;;11.63;8.43;;;;;;;;;;2114875;28;20050;-46
2023/01/01 05:20:44;;;;;;;10.60;7.45;;;;;;;;;;2114921;28;20076;-45
2023/01/01 05:21:45;;;;;;;9.25;6.82;;;;;;;;;;2114878;28;20408;-45
2023/01/01 05:22:46;;;;;;;13.30;8.35;;;;;;;;;;2114773;28;20055;-45
2023/01/01 05:23:48;;;;;;;10.38;7.28;;;;;;;;;;2114945;28;20054;-46
2023/01/01 05:24:48;;;;;;;11.45;8.23;;;;;;;;;;2114550;28;20043;-46
2023/01/01 05:25:50;;;;;;;11.00;7.63;;;;;;;;;;2114831;28;20050;-44
2023/01/01 05:26:52;;;;;;;11.73;8.10;;;;;;;;;;2114860;28;20051;-46
2023/01/01 05:27:53;;;;;;;12.23;7.50;;;;;;;;;;2114947;28;20050;-45
2023/01/01 05:28:55;;;;;;;11.82;7.80;;;;;;;;;;2114646;28;20104;-44
2023/01/01 05:29:55;;;;;;;;;;;;;;;;;;2115318;28;20104;-46
2023/01/01 05:30:56;;;;;;;10.15;7.47;;;;;;;;;;2114825;28;19972;-46
2023/01/01 05:31:57;;;;;;;11.15;7.50;;;;;;;;;;2114835;28;20043;-45
2023/01/01 05:32:58;;;;;;;10.15;7.40;;;;;;;;;;2114732;28;20457;-45
2023/01/01 05:34:00;;;;;;;13.23;7.72;;;;;;;;;;2114955;28;20051;-46
2023/01/01 05:35:01;;;;;;;10.40;7.18;;;;;;;;;;2114787;28;20052;-45
2023/01/01 05:36:03;;;;;;;14.00;8.05;;;;;;;;;;2114669;28;20047;-44
2023/01/01 05:37:04;;;;;;;10.55;7.55;;;;;;;;;;2114693;28;20048;-45
2023/01/01 05:38:05;;;;;;;10.55;7.32;;;;;;;;;;2114894;28;20093;-45
2023/01/01 05:39:07;;;;;;;8.60;6.77;;;;;;;;;;2114756;28;20097;-45
2023/01/01 05:40:08;;;;;;;9.55;6.75;;;;;;;;;;2114590;28;20039;-44
2023/01/01 05:41:11;;;;;;;12.82;8.10;;;;;;;;;;2114668;28;20044;-44
2023/01/01 05:42:11;;;;;;;11.55;7.35;;;;;;;;;;2114698;28;20063;-44
2023/01/01 05:43:13;;;;;;;10.93;8.23;;;;;;;;;;2114907;28;20070;-45
2023/01/01 05:44:15;;;;;;;10.43;7.38;;;;;;;;;;2114665;28;20047;-46
2023/01/01 05:45:16;;;;;;;10.55;7.88;;;;;;;;;;2114647;28;20718;-46
2023/01/01 05:46:18;;;;;;;12.47;8.67;;;;;;;;;;2114935;28;20048;-45
2023/01/01 05:47:21;;;;;;;13.10;8.57;;;;;;;;;;2114657;28;20082;-45
2023/01/01 05:48:22;;;;;;;12.45;8.07;;;;;;;;;;2114677;28;20059;-44
2023/01/01 05:49:23;;;;;;;11.30;8.10;;;;;;;;;;2114598;28;20052;-45
2023/01/01 05:50:24;;;;;;;10.90;7.63;;;;;;;;;;2114930;28;20480;-45
2023/01/01 05:51:27;;;;;;;10.55;6.90;;;;;;;;;;2114706;28;20047;-45
2023/01/01 05:52:28;;;;;;;;;;;;;;;;;;2115405;28;20067;-45
2023/01/01 05:53:29;;;;;;;11.80;7.45;;;;;;;;;;2114663;28;20383;-45
2023/01/01 05:54:30;;;;;;;10.73;7.93;;;;;;;;;;2114543;28;20048;-44
2023/01/01 05:55:31;;;;;;;9.80;7.93;;;;;;;;;;2115158;28;20040;-44
2023/01/01 05:56:32;;;;;;;10.50;7.78;;;;;;;;;;2114457;28;20043;-44
2023/01/01 05:57:33;;;;;;;10.13;7.68;;;;;;;;;;2114780;28;20052;-45
2023/01/01 05:58:35;;;;;;;12.67;7.50;;;;;;;;;;2114599;28;20075;-45
2023/01/01 05:59:36;;;;;;;10.18;7.85;;;;;;;;;;2114678;28;20048;-44
2023/01/01 06:00:37;;;;;;;12.75;8.30;;;;;;;;;;2114666;28;20083;-45
2023/01/01 06:01:38;;;;;;;10.95;7.53;;;;;;;;;;2114622;28;20081;-45
2023/01/01 06:02:48;;;;;;;11.45;7.38;;;;;;;;;;2114513;28;20066;-45
2023/01/01 06:03:49;;;;;;;18.08;8.32;;;;;;;;;;2114519;28;20048;-44
2023/01/01 06:04:51;;;;;;;12.07;8.00;;;;;;;;;;2114581;28;20048;-43
2023/01/01 06:05:52;;;;;;;14.00;7.15;;;;;;;;;;2114584;28;20061;-45
2023/01/01 06:06:53;;;;;;;9.45;6.97;;;;;;;;;;2114619;28;20039;-44
2023/01/01 06:07:55;;;;;;;11.23;7.75;;;;;;;;;;2114548;28;20035;-45
2023/01/01 06:08:56;;;;;;;11.23;7.50;;;;;;;;;;2114340;28;20485;-44
2023/01/01 06:09:57;;;;;;;13.23;8.10;;;;;;;;;;2114441;28;20500;-45
2023/01/01 06:10:58;;;;;;;12.63;8.07;;;;;;;;;;2114511;28;20088;-45
2023/01/01 06:12:00;;;;;;;11.20;8.05;;;;;;;;;;2114435;28;20043;-45
2023/01/01 06:13:01;;;;;;;11.27;7.72;;;;;;;;;;2114630;28;20058;-45
2023/01/01 06:14:02;;;;;;;10.95;7.68;;;;;;;;;;2114554;28;20096;-45
2023/01/01 06:15:04;;;;;;;13.68;8.25;;;;;;;;;;2114390;28;20047;-45